Search for airport 
image banner adimage banner adimage banner ad
image banner ad

KSUU - Travis Afb

Located in Fairfield, United States

ICAO - SUU, IATA -

Data provided by Airmate  

General information

Coordinates: N38°15'52" W121°55'27"
Elevation is 63 feet MSL.
Magnetic variation is 13° East
View others Airports in California

Operational data

Special qualification required
Current time UTC:
Current local time:
Weather
METAR: KSUU 221356Z AUTO 24016KT 10SM CLR 16/11 A2989 RMK AO2 SLP128 T01630114 $
TAF: TAF KSUU 221100Z 2211/2317 23015G25KT 9999 SKC QNH2986INS BECMG 2216/2217 23012G18KT 9999 SKC QNH2983INS BECMG 2300/2301 23015G25KT 9999 SKC QNH2980INS BECMG 2312/2313 23009KT 9999 SKC QNH2985INS TX27/2221Z TN13/2211Z
View NOTAMs / SUP AIP / TFR affecting this airport [VIEW]
Communications frequencies: [VIEW]

Runways:

RWY identifierQFULength (ft)Width (ft)SurfaceLDA (ft)
03R47°10995150CONC
21L227°10995150CONC
03L47°11001300OTHER
21R227°11001300OTHER

Airport contact information

Address: Fairfield United States

Satellite view of KSUU